Startpagina
METAR-TAF:

METAR-TAF

Vliegvelden :

Diest, België

Schaffen

breedte: 51-00N, lengte: 005-04E, hoogte: 30 m

Actueel weer

Dit bericht is 13 minuten geleden gemaakt, om 09:52 UTC
Wind 5 kt uit het zuiden
Temperatuur 1°C
Vochtigheid 80%
Druk 1020 hPa
Zicht: 8000 m
Weinig wolken op 7000 ft
Gebroken wolken op 10000 ft

METAR: EBDT 190952Z 18005KT 8000 FEW070 BKN100 01/M02 Q1020 BLACKBLU BLU

Tijdstip: 11:05 (10:05 UTC)

Verwachting

Dit bericht is 1 uur en het 24 minuten geleden gemaakt, om 08:41 UTC
Verwachting geldig van 19 om 10 UTC tot 19 om 19 UTC
Wind 3 kt uit het zuiden
Zicht 10 km of meer
Weinig wolken op 3000 ft
Gebroken wolken op 7000 ft
Tijdelijke
van 19 om 12 UTC tot 19 om 19 UTC
Zicht: 6000 m
Verspreide wolken op 2500 ft
Gebroken wolken op 6000 ft
lichte regen

TAF: EBDT 190841Z 1910/1919 17003KT 9999 FEW030 BKN070 TEMPO 1912/1919 6000 -RA SCT025 BKN060

Waarnemingen en weersverwachtingen van meer dan 4000 vliegvelden (METAR en TAF).

De beschikbare stations zijn de gele en rode punten op de kaart.

Ga met uw muis naar het station om de naam te zien.

Klik dan om waarnemingen en weersverwachtingen te zien.

kaart wijzigen: klik op de groene knoppen met een zwart kruis om in te zoomen, op de groene knop met een streepje om uit te zoomen of op de groene pijlen voor aangrenzende kaarten.


METAR-TAF: